Time;durP1;ratioP1;P1;durP2;ratioP2;P2;SDS_P1;SDS_P2;PMS_P1;PMS_P2;Temp;Humidity;BMP_temperature;BMP_pressure;BME280_temperature;BME280_humidity;BME280_pressure;Samples;Min_cycle;Max_cycle;Signal;HPM_P1;HPM_P2
2022/01/23 00:02:08;;;;;;;;;;;6.00;87.20;;;;;;4993970;28;19926;-78
2022/01/23 00:04:36;;;;;;;;;;;6.00;87.20;;;;;;4994031;28;19925;-78
2022/01/23 00:07:07;;;;;;;;;;;6.00;87.20;;;;;;4992217;28;20383;-78
2022/01/23 00:09:35;;;;;;;;;;;6.00;87.20;;;;;;4993902;28;19930;-79
2022/01/23 00:12:07;;;;;;;;;;;6.00;87.20;;;;;;5001103;28;20387;-79
2022/01/23 00:17:20;;;;;;;;;;;6.00;87.30;;;;;;5013747;28;19932;-79
2022/01/23 00:19:49;;;;;;;;;;;6.00;87.40;;;;;;5010900;28;19925;-79
2022/01/23 00:22:19;;;;;;;;;;;6.00;87.50;;;;;;4992580;28;20491;-78
2022/01/23 00:30:21;;;;;;;;;;;6.00;87.50;;;;;;5007567;28;19926;-79
2022/01/23 00:32:49;;;;;;;;;;;6.00;87.60;;;;;;4993606;28;19933;-79
2022/01/23 00:35:17;;;;;;;;;;;5.90;87.70;;;;;;4993173;28;19933;-78
2022/01/23 00:37:44;;;;;;;;;;;5.90;87.70;;;;;;5042866;28;19947;-79
2022/01/23 00:40:12;;;;;;;;;;;5.90;87.70;;;;;;5056445;28;19931;-77
2022/01/23 00:42:40;;;;;;;;;;;5.90;87.80;;;;;;5074727;28;19931;-78
2022/01/23 00:47:50;;;;;;;;;;;5.90;87.90;;;;;;5076235;28;19924;-77
2022/01/23 00:50:17;;;;;;;;;;;5.90;87.90;;;;;;5094841;28;20373;-78
2022/01/23 00:52:45;;;;;;;;;;;5.90;88.00;;;;;;5076270;28;19931;-79
2022/01/23 00:55:12;;;;;;;;;;;5.90;88.00;;;;;;5094734;28;19924;-78
2022/01/23 00:57:40;;;;;;;;;;;5.90;88.00;;;;;;5095055;28;19928;-78
2022/01/23 01:00:08;;;;;;;;;;;5.90;88.00;;;;;;5076855;28;19924;-78
2022/01/23 01:02:35;;;;;;;;;;;5.90;88.00;;;;;;5059910;28;20278;-78
2022/01/23 01:05:04;;;;;;;;;;;5.90;88.00;;;;;;5094595;28;19931;-77
2022/01/23 01:07:31;;;;;;;;;;;5.90;88.00;;;;;;5094548;28;20419;-78
2022/01/23 01:10:05;;;;;;;;;;;5.90;88.00;;;;;;5076638;28;19924;-78
2022/01/23 01:15:52;;;;;;;;;;;6.00;88.00;;;;;;5272178;23;19922;-75
2022/01/23 01:32:15;;;;;;;;;;;6.00;87.80;;;;;;4880193;29;19928;-76
2022/01/23 01:34:50;;;;;;;;;;;6.00;87.80;;;;;;4894548;29;19935;-76
2022/01/23 01:37:18;;;;;;;;;;;6.00;87.70;;;;;;4895548;29;19927;-76
2022/01/23 01:39:47;;;;;;;;;;;6.00;87.80;;;;;;4882480;29;19928;-76
2022/01/23 01:42:15;;;;;;;;;;;6.00;87.70;;;;;;4897238;29;19935;-75
2022/01/23 01:44:43;;;;;;;;;;;6.00;87.70;;;;;;4896876;29;19943;-76
2022/01/23 01:47:22;;;;;;;;;;;6.00;87.70;;;;;;4898768;29;20436;-76
2022/01/23 01:49:56;;;;;;;;;;;6.00;87.70;;;;;;4884328;29;19939;-76
2022/01/23 01:52:24;;;;;;;;;;;6.00;87.60;;;;;;4890104;29;19928;-76
2022/01/23 01:55:00;;;;;;;;;;;6.00;87.50;;;;;;4898729;29;19927;-76
2022/01/23 01:57:39;;;;;;;;;;;6.00;87.50;;;;;;4897491;29;19934;-76
2022/01/23 02:08:31;;;;;;;;;;;6.00;87.50;;;;;;4897276;29;19927;-77
2022/01/23 02:11:08;;;;;;;;;;;6.00;87.50;;;;;;4897123;29;19936;-77
2022/01/23 02:13:46;;;;;;;;;;;5.90;87.30;;;;;;4897013;29;19927;-76
2022/01/23 02:53:18;;;;;;;;;;;5.80;86.80;;;;;;4860273;29;19934;-77
2022/01/23 02:55:22;;;;;;;;;;;5.70;86.70;;;;;;4853196;29;19928;-76
2022/01/23 03:00:24;;;;;;;;;;;5.80;86.80;;;;;;4874760;29;19935;-76
2022/01/23 03:03:05;;;;;;;;;;;5.70;86.70;;;;;;4873897;29;20298;-77
2022/01/23 03:05:41;;;;;;;;;;;5.70;86.70;;;;;;4875810;29;20330;-76
2022/01/23 03:09:53;;;;;;;;;;;5.70;86.60;;;;;;4877386;29;19928;-76
2022/01/23 03:11:15;;;;;;;;;;;5.70;86.50;;;;;;4874135;29;19928;-76
2022/01/23 03:13:56;;;;;;;;;;;5.70;86.50;;;;;;4861934;29;20386;-76
2022/01/23 03:27:37;;;;;;;;;;;5.60;86.30;;;;;;4877494;29;20293;-76
2022/01/23 03:30:51;;;;;;;;;;;5.70;86.20;;;;;;4866532;29;19932;-76
2022/01/23 03:32:59;;;;;;;;;;;5.60;86.20;;;;;;4859889;29;19928;-76
2022/01/23 03:35:26;;;;;;;;;;;5.60;86.20;;;;;;4859100;29;19928;-75
2022/01/23 03:37:53;;;;;;;;;;;5.60;86.20;;;;;;4859878;29;19951;-76
2022/01/23 03:40:21;;;;;;;;;;;5.60;86.10;;;;;;4860392;29;19932;-76
2022/01/23 03:42:49;;;;;;;;;;;5.60;86.20;;;;;;4859012;29;19928;-76
2022/01/23 03:50:47;;;;;;;;;;;5.50;86.20;;;;;;4876969;29;20528;-76
2022/01/23 03:53:43;;;;;;;;;;;5.60;86.20;;;;;;4883216;29;19928;-77
2022/01/23 03:56:11;;;;;;;;;;;5.50;86.20;;;;;;4878268;29;19928;-76
2022/01/23 03:58:41;;;;;;;;;;;5.50;86.20;;;;;;4880777;29;19932;-77
2022/01/23 04:01:15;;;;;;;;;;;5.50;86.30;;;;;;4863305;29;19932;-77
2022/01/23 04:03:44;;;;;;;;;;;5.50;86.20;;;;;;4862070;29;19929;-76
2022/01/23 04:06:12;;;;;;;;;;;5.50;86.20;;;;;;4846671;29;19928;-76
2022/01/23 04:08:42;;;;;;;;;;;5.50;86.30;;;;;;4862001;29;20394;-76
2022/01/23 04:11:10;;;;;;;;;;;5.50;86.20;;;;;;4861899;29;19928;-76
2022/01/23 04:13:48;;;;;;;;;;;5.50;86.30;;;;;;4861669;29;19932;-76
2022/01/23 04:19:33;;;;;;;;;;;5.50;86.30;;;;;;4877329;29;19928;-76
2022/01/23 05:04:31;;;;;;;;;;;5.40;86.30;;;;;;4804902;29;19937;-75
2022/01/23 05:07:19;;;;;;;;;;;5.40;86.30;;;;;;4788887;29;19933;-76
2022/01/23 05:10:00;;;;;;;;;;;5.40;86.30;;;;;;4769440;29;20285;-76
2022/01/23 05:12:41;;;;;;;;;;;5.30;86.30;;;;;;4799771;29;19933;-76
2022/01/23 05:15:11;;;;;;;;;;;5.40;86.40;;;;;;4813259;29;19946;-76
2022/01/23 05:17:39;;;;;;;;;;;5.30;86.50;;;;;;4822340;29;19935;-76
2022/01/23 05:20:06;;;;;;;;;;;5.40;86.50;;;;;;4822818;29;19929;-77
2022/01/23 05:22:39;;;;;;;;;;;5.40;86.50;;;;;;4822719;29;19936;-76
2022/01/23 05:25:10;;;;;;;;;;;5.30;86.50;;;;;;4823113;29;19932;-76
2022/01/23 05:27:37;;;;;;;;;;;5.30;86.50;;;;;;4792690;29;19936;-76
2022/01/23 05:30:05;;;;;;;;;;;5.30;86.50;;;;;;4836891;29;19929;-76
2022/01/23 05:32:37;;;;;;;;;;;5.30;86.50;;;;;;4792247;29;19938;-76
2022/01/23 05:35:05;;;;;;;;;;;5.30;86.60;;;;;;4837988;29;19929;-76
2022/01/23 05:37:33;;;;;;;;;;;5.30;86.60;;;;;;4822620;29;19929;-76
2022/01/23 05:40:03;;;;;;;;;;;5.30;86.60;;;;;;4822662;29;19929;-76
2022/01/23 05:42:33;;;;;;;;;;;5.30;86.60;;;;;;4860454;29;19928;-76
2022/01/23 05:45:02;;;;;;;;;;;5.30;86.60;;;;;;4860617;29;20416;-75
2022/01/23 05:47:50;;;;;;;;;;;5.30;86.70;;;;;;4861335;29;19935;-76
2022/01/23 05:50:40;;;;;;;;;;;5.30;86.70;;;;;;4840466;29;19928;-76
2022/01/23 05:53:36;;;;;;;;;;;5.30;86.70;;;;;;4828707;29;19928;-76
2022/01/23 05:56:04;;;;;;;;;;;5.30;86.80;;;;;;4825173;29;19936;-76
2022/01/23 05:58:51;;;;;;;;;;;5.30;86.90;;;;;;4831211;29;19939;-75
2022/01/23 06:01:21;;;;;;;;;;;5.20;86.80;;;;;;4837190;29;19935;-76
2022/01/23 06:03:51;;;;;;;;;;;5.30;86.80;;;;;;4822439;29;19929;-76
2022/01/23 06:06:30;;;;;;;;;;;5.20;86.80;;;;;;4837197;29;19929;-76
2022/01/23 06:08:58;;;;;;;;;;;5.20;86.80;;;;;;4821504;29;19933;-76
2022/01/23 06:11:26;;;;;;;;;;;5.20;86.70;;;;;;4807043;29;19936;-77
2022/01/23 06:13:53;;;;;;;;;;;5.20;86.60;;;;;;4822032;29;19952;-76
2022/01/23 06:16:21;;;;;;;;;;;5.20;86.60;;;;;;4839254;29;20504;-76
2022/01/23 06:19:14;;;;;;;;;;;5.20;86.60;;;;;;4839506;29;19928;-76
2022/01/23 06:22:00;;;;;;;;;;;5.20;86.70;;;;;;4840187;29;19932;-75
2022/01/23 06:24:55;;;;;;;;;;;5.20;86.60;;;;;;4836590;29;20092;-76
2022/01/23 06:27:45;;;;;;;;;;;5.20;86.50;;;;;;4849568;29;20390;-76
2022/01/23 06:30:14;;;;;;;;;;;5.10;86.60;;;;;;4859243;29;19939;-76
2022/01/23 06:32:42;;;;;;;;;;;5.10;86.60;;;;;;4890476;29;19951;-76
2022/01/23 06:35:10;;;;;;;;;;;5.10;86.70;;;;;;4877088;29;19934;-75
2022/01/23 06:37:37;;;;;;;;;;;5.10;86.70;;;;;;4877564;29;19928;-76
2022/01/23 06:40:06;;;;;;;;;;;5.10;86.60;;;;;;4877448;29;20385;-76
2022/01/23 06:42:54;;;;;;;;;;;5.10;86.60;;;;;;4858995;29;19928;-77
2022/01/23 06:45:32;;;;;;;;;;;5.00;86.60;;;;;;4874911;29;19939;-76
2022/01/23 06:48:02;;;;;;;;;;;5.10;86.70;;;;;;4859150;29;19928;-76
2022/01/23 06:50:29;;;;;;;;;;;5.00;86.70;;;;;;4874207;29;20294;-76
2022/01/23 06:52:57;;;;;;;;;;;5.00;86.70;;;;;;4859373;29;19929;-75
2022/01/23 06:55:26;;;;;;;;;;;5.00;86.60;;;;;;4859002;29;19936;-75
2022/01/23 06:57:56;;;;;;;;;;;5.00;86.60;;;;;;4859230;29;19935;-75
2022/01/23 07:00:23;;;;;;;;;;;5.00;86.60;;;;;;4859777;29;19929;-75
2022/01/23 07:03:10;;;;;;;;;;;5.00;86.60;;;;;;4878737;29;19928;-76
2022/01/23 07:05:50;;;;;;;;;;;5.00;86.70;;;;;;4878855;29;19935;-76
2022/01/23 07:08:30;;;;;;;;;;;4.90;86.70;;;;;;4877158;29;20309;-76
2022/01/23 07:11:14;;;;;;;;;;;4.90;86.80;;;;;;4877516;29;20048;-76
2022/01/23 07:14:04;;;;;;;;;;;4.90;86.70;;;;;;4877511;29;19928;-76
2022/01/23 07:16:58;;;;;;;;;;;5.00;86.60;;;;;;4877242;29;19949;-76
2022/01/23 07:19:41;;;;;;;;;;;5.00;86.60;;;;;;4878707;29;19932;-77
2022/01/23 07:22:09;;;;;;;;;;;4.90;86.70;;;;;;4867776;29;20358;-76
2022/01/23 07:24:36;;;;;;;;;;;4.90;86.70;;;;;;4858991;29;19929;-76
2022/01/23 07:27:13;;;;;;;;;;;4.90;86.70;;;;;;4865031;29;20297;-77
2022/01/23 07:29:42;;;;;;;;;;;4.90;86.70;;;;;;4878628;29;20392;-77
2022/01/23 07:32:10;;;;;;;;;;;4.90;86.70;;;;;;4880196;29;19935;-76
2022/01/23 07:34:38;;;;;;;;;;;4.80;86.70;;;;;;4881184;29;19927;-76
2022/01/23 07:37:09;;;;;;;;;;;4.80;86.80;;;;;;4880927;29;19928;-76
2022/01/23 07:39:39;;;;;;;;;;;4.90;86.90;;;;;;4867650;29;19932;-77
2022/01/23 07:42:19;;;;;;;;;;;4.80;86.90;;;;;;4877911;29;19955;-77
2022/01/23 07:44:58;;;;;;;;;;;4.90;86.90;;;;;;4863721;29;19929;-77
2022/01/23 07:47:26;;;;;;;;;;;4.80;86.80;;;;;;4863441;29;19936;-77
2022/01/23 07:50:14;;;;;;;;;;;4.80;86.80;;;;;;4862489;29;19932;-76
2022/01/23 07:52:50;;;;;;;;;;;4.80;86.80;;;;;;4862694;29;19951;-76
2022/01/23 07:55:24;;;;;;;;;;;4.80;86.80;;;;;;4862513;29;19928;-76
2022/01/23 07:58:14;;;;;;;;;;;4.80;86.90;;;;;;4863740;29;19935;-77
2022/01/23 08:01:05;;;;;;;;;;;4.80;86.90;;;;;;4862491;29;19935;-76
2022/01/23 08:03:45;;;;;;;;;;;4.80;87.00;;;;;;4877935;29;19928;-76
2022/01/23 08:06:17;;;;;;;;;;;4.80;87.10;;;;;;4868234;29;19938;-75
2022/01/23 08:09:22;;;;;;;;;;;4.80;87.10;;;;;;4880821;29;19928;-77
2022/01/23 08:11:50;;;;;;;;;;;4.80;87.10;;;;;;4881773;29;19947;-77
2022/01/23 08:14:18;;;;;;;;;;;4.80;87.10;;;;;;4880633;29;19927;-77
2022/01/23 08:16:45;;;;;;;;;;;4.80;87.10;;;;;;4863392;29;19955;-77
2022/01/23 08:19:13;;;;;;;;;;;4.80;87.20;;;;;;4863021;29;19928;-78
2022/01/23 08:21:40;;;;;;;;;;;4.80;87.20;;;;;;4863648;29;19929;-77
2022/01/23 08:24:08;;;;;;;;;;;4.80;87.20;;;;;;4861853;29;20298;-77
2022/01/23 08:26:36;;;;;;;;;;;4.80;87.20;;;;;;4861334;29;20394;-76
2022/01/23 08:29:07;;;;;;;;;;;4.80;87.20;;;;;;4876275;29;19935;-76
2022/01/23 08:31:35;;;;;;;;;;;4.80;87.20;;;;;;4880293;29;19935;-77
2022/01/23 08:34:02;;;;;;;;;;;4.80;87.20;;;;;;4879898;29;19928;-75
2022/01/23 08:36:32;;;;;;;;;;;4.80;87.20;;;;;;4879721;29;19928;-76
2022/01/23 08:39:01;;;;;;;;;;;4.80;87.20;;;;;;4873951;29;19939;-77
2022/01/23 08:44:19;;;;;;;;;;;4.70;87.20;;;;;;4866095;29;19948;-75
2022/01/23 08:46:47;;;;;;;;;;;4.70;87.30;;;;;;4870786;29;19928;-76
2022/01/23 08:49:16;;;;;;;;;;;4.70;87.30;;;;;;4853130;29;19936;-76
2022/01/23 08:51:44;;;;;;;;;;;4.70;87.30;;;;;;4852882;29;19928;-76
2022/01/23 08:54:12;;;;;;;;;;;4.70;87.30;;;;;;4868199;29;19932;-77
2022/01/23 08:56:40;;;;;;;;;;;4.70;87.30;;;;;;4870354;29;19927;-77
2022/01/23 08:59:07;;;;;;;;;;;4.70;87.30;;;;;;4869985;29;19942;-77
2022/01/23 09:01:35;;;;;;;;;;;4.70;87.20;;;;;;4853172;29;19929;-76
2022/01/23 09:04:03;;;;;;;;;;;4.70;87.20;;;;;;4869783;29;19928;-75
2022/01/23 09:06:31;;;;;;;;;;;4.70;87.10;;;;;;4871087;29;19938;-76
2022/01/23 09:09:00;;;;;;;;;;;4.70;87.20;;;;;;4869126;29;20015;-76
2022/01/23 09:11:40;;;;;;;;;;;4.70;87.00;;;;;;4868538;29;19936;-76
2022/01/23 09:14:07;;;;;;;;;;;4.70;86.90;;;;;;4870765;29;19932;-76
2022/01/23 09:16:36;;;;;;;;;;;4.60;86.70;;;;;;4868228;29;19932;-75
2022/01/23 09:19:04;;;;;;;;;;;4.70;86.80;;;;;;4853743;29;19932;-75
2022/01/23 09:21:31;;;;;;;;;;;4.70;86.70;;;;;;4867854;29;20382;-76
2022/01/23 09:23:59;;;;;;;;;;;4.70;86.60;;;;;;4868734;29;19936;-75
2022/01/23 09:26:27;;;;;;;;;;;4.60;86.70;;;;;;4854349;29;20018;-76
2022/01/23 09:28:56;;;;;;;;;;;4.60;86.60;;;;;;4867164;29;19928;-76
2022/01/23 09:31:34;;;;;;;;;;;4.60;86.70;;;;;;4871541;29;19932;-76
2022/01/23 09:34:02;;;;;;;;;;;4.60;86.70;;;;;;4870411;29;19935;-76
2022/01/23 09:36:29;;;;;;;;;;;4.60;86.70;;;;;;4868921;29;19928;-77
2022/01/23 09:38:57;;;;;;;;;;;4.50;86.70;;;;;;4869146;29;19935;-76
2022/01/23 09:41:27;;;;;;;;;;;4.60;86.80;;;;;;4869356;29;19951;-77
2022/01/23 09:43:55;;;;;;;;;;;4.60;86.70;;;;;;4867290;29;19929;-76
2022/01/23 09:46:26;;;;;;;;;;;4.50;86.70;;;;;;4869061;29;19928;-76
2022/01/23 09:48:54;;;;;;;;;;;4.50;86.70;;;;;;4867288;29;19932;-77
2022/01/23 09:51:23;;;;;;;;;;;4.50;86.70;;;;;;4869545;29;19936;-75
2022/01/23 09:53:54;;;;;;;;;;;4.50;86.70;;;;;;4866812;29;19960;-75
2022/01/23 09:56:27;;;;;;;;;;;4.50;86.70;;;;;;4869039;29;19932;-77
2022/01/23 09:58:54;;;;;;;;;;;4.50;86.70;;;;;;4868524;29;19928;-77
2022/01/23 10:01:23;;;;;;;;;;;4.50;86.70;;;;;;4868579;29;20602;-76
2022/01/23 10:03:51;;;;;;;;;;;4.50;86.70;;;;;;4884697;29;20003;-76
2022/01/23 10:06:19;;;;;;;;;;;4.50;86.70;;;;;;4868907;29;19935;-76
2022/01/23 10:08:47;;;;;;;;;;;4.50;86.70;;;;;;4864990;29;19928;-76
2022/01/23 10:11:15;;;;;;;;;;;4.50;86.70;;;;;;4865083;29;19928;-76
2022/01/23 10:13:43;;;;;;;;;;;4.50;86.70;;;;;;4861530;29;20402;-78
2022/01/23 10:16:11;;;;;;;;;;;4.50;86.70;;;;;;4860818;29;19932;-77
2022/01/23 10:18:38;;;;;;;;;;;4.50;86.60;;;;;;4871752;29;19928;-77
2022/01/23 10:21:06;;;;;;;;;;;4.40;86.40;;;;;;4878321;29;19928;-77
2022/01/23 10:23:34;;;;;;;;;;;4.40;86.50;;;;;;4879450;29;19928;-76
2022/01/23 10:26:03;;;;;;;;;;;4.40;86.50;;;;;;4879285;29;19931;-76
2022/01/23 10:28:32;;;;;;;;;;;4.40;86.50;;;;;;4862456;29;19928;-76
2022/01/23 10:31:01;;;;;;;;;;;4.30;86.50;;;;;;4876473;29;19938;-76
2022/01/23 10:33:32;;;;;;;;;;;4.30;86.60;;;;;;4867881;29;20386;-75
2022/01/23 10:36:01;;;;;;;;;;;4.30;86.60;;;;;;4876245;29;19935;-75
2022/01/23 10:38:49;;;;;;;;;;;4.30;86.60;;;;;;4861360;29;20297;-76
2022/01/23 10:50:05;;;;;;;;;;;4.30;86.70;;;;;;4869006;29;19935;-78
2022/01/23 10:52:33;;;;;;;;;;;4.40;86.60;;;;;;4878938;29;19934;-78
2022/01/23 10:55:03;;;;;;;;;;;4.30;86.50;;;;;;4878789;29;19935;-78
2022/01/23 10:57:38;;;;;;;;;;;4.30;86.60;;;;;;4863186;29;19936;-78
2022/01/23 11:00:07;;;;;;;;;;;4.30;86.70;;;;;;4869928;29;19927;-78
2022/01/23 11:02:42;;;;;;;;;;;4.30;86.70;;;;;;4877309;29;20275;-78
2022/01/23 11:05:15;;;;;;;;;;;4.30;86.70;;;;;;4878628;29;19941;-79
2022/01/23 11:07:45;;;;;;;;;;;4.30;86.70;;;;;;4878751;29;19927;-79
2022/01/23 11:10:14;;;;;;;;;;;4.30;86.60;;;;;;4878691;29;19928;-80
2022/01/23 11:18:10;;;;;;;;;;;4.30;86.60;;;;;;4878733;29;20290;-79
2022/01/23 11:20:38;;;;;;;;;;;4.30;86.60;;;;;;4870364;29;19929;-78
2022/01/23 11:23:13;;;;;;;;;;;4.30;86.60;;;;;;4878753;29;19928;-79
2022/01/23 11:25:45;;;;;;;;;;;4.30;86.60;;;;;;4877596;29;19935;-78
2022/01/23 11:28:13;;;;;;;;;;;4.30;86.70;;;;;;4858390;29;20405;-75
2022/01/23 11:30:42;;;;;;;;;;;4.30;86.80;;;;;;4860141;29;19928;-76
2022/01/23 11:33:11;;;;;;;;;;;4.30;86.80;;;;;;4860626;29;19935;-76
2022/01/23 11:35:39;;;;;;;;;;;4.30;86.80;;;;;;4859321;29;19929;-77
2022/01/23 11:38:15;;;;;;;;;;;4.40;86.80;;;;;;4858743;29;20287;-75
2022/01/23 11:54:37;;;;;;;;;;;4.40;86.20;;;;;;4878077;29;19927;-76
2022/01/23 11:57:24;;;;;;;;;;;4.40;86.00;;;;;;4869303;29;19936;-76
2022/01/23 12:00:10;;;;;;;;;;;4.40;86.10;;;;;;4843135;29;19939;-77
2022/01/23 12:02:42;;;;;;;;;;;4.40;86.20;;;;;;4843664;29;19928;-76
2022/01/23 12:05:10;;;;;;;;;;;4.40;86.20;;;;;;4858203;29;19928;-77
2022/01/23 12:07:39;;;;;;;;;;;4.40;86.20;;;;;;4869211;29;19957;-77
2022/01/23 12:10:30;;;;;;;;;;;4.40;86.20;;;;;;4876934;29;19935;-76
2022/01/23 12:16:20;;;;;;;;;;;4.50;86.10;;;;;;4876903;29;19927;-76
2022/01/23 12:16:41;;;;;;;;;;;4.40;86.00;;;;;;4871627;29;19928;-75
2022/01/23 12:19:17;;;;;;;;;;;4.40;85.90;;;;;;4880608;29;20386;-76
2022/01/23 12:21:45;;;;;;;;;;;4.30;85.80;;;;;;4876216;29;19929;-77
2022/01/23 12:24:15;;;;;;;;;;;4.30;85.90;;;;;;4861448;29;19935;-77
2022/01/23 12:26:42;;;;;;;;;;;4.40;86.00;;;;;;4861395;29;19932;-76
2022/01/23 12:29:10;;;;;;;;;;;4.40;86.00;;;;;;4862665;29;20282;-76
2022/01/23 12:32:18;;;;;;;;;;;4.40;86.10;;;;;;4866057;29;19928;-77
2022/01/23 12:34:46;;;;;;;;;;;4.40;86.20;;;;;;4868658;29;19935;-75
2022/01/23 12:37:13;;;;;;;;;;;4.40;86.00;;;;;;4861102;29;19929;-76
2022/01/23 12:39:41;;;;;;;;;;;4.40;85.90;;;;;;4862382;29;19935;-77
2022/01/23 12:42:08;;;;;;;;;;;4.40;85.90;;;;;;4862463;29;19928;-76
2022/01/23 12:44:36;;;;;;;;;;;4.40;85.80;;;;;;4861865;29;19928;-76
2022/01/23 12:47:06;;;;;;;;;;;4.40;85.80;;;;;;4864616;29;19935;-76
2022/01/23 12:49:35;;;;;;;;;;;4.40;85.80;;;;;;4878615;29;19951;-75
2022/01/23 12:52:05;;;;;;;;;;;4.40;85.80;;;;;;4879461;29;19938;-75
2022/01/23 12:54:34;;;;;;;;;;;4.40;85.70;;;;;;4879193;29;19931;-76
2022/01/23 12:57:09;;;;;;;;;;;4.40;85.80;;;;;;4879451;29;19928;-76
2022/01/23 12:59:38;;;;;;;;;;;4.40;85.90;;;;;;4879035;29;19928;-76
2022/01/23 13:02:12;;;;;;;;;;;4.50;85.90;;;;;;4879472;29;19935;-76
2022/01/23 13:04:45;;;;;;;;;;;4.50;85.80;;;;;;4872814;29;19944;-76
2022/01/23 13:07:20;;;;;;;;;;;4.40;85.90;;;;;;4865686;29;19935;-76
2022/01/23 13:10:05;;;;;;;;;;;4.40;85.70;;;;;;4879979;29;19935;-76
2022/01/23 13:17:49;;;;;;;;;;;4.40;84.90;;;;;;4878832;29;19952;-76
2022/01/23 13:29:52;;;;;;;;;;;4.30;84.70;;;;;;4878424;29;19935;-77
2022/01/23 13:34:26;;;;;;;;;;;4.30;84.60;;;;;;4877351;29;19927;-77
2022/01/23 13:37:13;;;;;;;;;;;4.30;84.70;;;;;;4879479;29;19950;-76
2022/01/23 13:39:48;;;;;;;;;;;4.30;84.90;;;;;;4878659;29;19928;-76
2022/01/23 13:51:14;;;;;;;;;;;4.30;85.30;;;;;;4860808;29;19928;-77
2022/01/23 13:53:30;;;;;;;;;;;4.30;85.20;;;;;;4861403;29;19995;-79
2022/01/23 13:58:52;;;;;;;;;;;4.30;84.80;;;;;;4878410;29;20018;-80
2022/01/23 14:03:54;;;;;;;;;;;4.30;84.70;;;;;;4879163;29;19928;-76
2022/01/23 14:06:22;;;;;;;;;;;4.30;84.70;;;;;;4874135;29;20411;-76
2022/01/23 14:09:10;;;;;;;;;;;4.30;84.60;;;;;;4861025;29;19928;-76
2022/01/23 14:11:38;;;;;;;;;;;4.30;84.60;;;;;;4860843;29;19928;-76
2022/01/23 14:14:27;;;;;;;;;;;4.30;84.60;;;;;;4860681;29;19935;-76
2022/01/23 14:16:55;;;;;;;;;;;4.30;84.60;;;;;;4860260;29;19939;-77
2022/01/23 14:19:25;;;;;;;;;;;4.30;84.60;;;;;;4860796;29;19955;-76
2022/01/23 14:21:53;;;;;;;;;;;4.30;84.70;;;;;;4866801;29;19937;-76
2022/01/23 14:24:31;;;;;;;;;;;4.30;84.70;;;;;;4879332;29;19951;-75
2022/01/23 14:27:13;;;;;;;;;;;4.30;84.70;;;;;;4862693;29;20373;-76
2022/01/23 14:29:49;;;;;;;;;;;4.30;84.60;;;;;;4879005;29;19960;-76
2022/01/23 14:32:35;;;;;;;;;;;4.30;84.80;;;;;;4877665;29;19928;-76
2022/01/23 14:35:24;;;;;;;;;;;4.30;84.80;;;;;;4877882;29;20423;-75
2022/01/23 14:37:52;;;;;;;;;;;4.30;84.90;;;;;;4854316;29;19935;-76
2022/01/23 14:40:24;;;;;;;;;;;4.30;84.80;;;;;;4873957;29;19936;-75
2022/01/23 14:42:57;;;;;;;;;;;4.30;84.80;;;;;;4876896;29;20370;-77
2022/01/23 14:45:26;;;;;;;;;;;4.30;84.80;;;;;;4877700;29;19942;-76
2022/01/23 14:47:53;;;;;;;;;;;4.20;84.70;;;;;;4878497;29;20020;-77
2022/01/23 14:50:26;;;;;;;;;;;4.30;84.80;;;;;;4877601;29;19928;-76
2022/01/23 14:52:53;;;;;;;;;;;4.20;84.80;;;;;;4877782;29;19931;-76
2022/01/23 14:55:21;;;;;;;;;;;4.20;84.80;;;;;;4878744;29;19928;-77
2022/01/23 14:57:48;;;;;;;;;;;4.20;84.90;;;;;;4847038;29;20382;-76
2022/01/23 15:00:16;;;;;;;;;;;4.20;84.90;;;;;;4860072;29;19928;-76
2022/01/23 15:02:44;;;;;;;;;;;4.20;84.90;;;;;;4860227;29;19939;-77
2022/01/23 15:05:12;;;;;;;;;;;4.20;84.90;;;;;;4866976;29;19928;-77
2022/01/23 15:07:41;;;;;;;;;;;4.10;84.90;;;;;;4878798;29;19927;-77
2022/01/23 15:10:13;;;;;;;;;;;4.20;85.00;;;;;;4877508;29;19931;-76
2022/01/23 15:12:41;;;;;;;;;;;4.20;85.10;;;;;;4878640;29;19928;-76
2022/01/23 15:15:08;;;;;;;;;;;4.10;85.00;;;;;;4878006;29;19928;-76
2022/01/23 15:17:37;;;;;;;;;;;4.10;84.80;;;;;;4862772;29;19928;-76
2022/01/23 15:20:06;;;;;;;;;;;4.10;84.80;;;;;;4860099;29;19928;-76
2022/01/23 15:22:33;;;;;;;;;;;4.00;84.80;;;;;;4860236;29;19935;-76
2022/01/23 15:25:02;;;;;;;;;;;4.00;84.80;;;;;;4859014;29;19928;-76
2022/01/23 15:27:30;;;;;;;;;;;4.00;84.90;;;;;;4860291;29;20393;-77
2022/01/23 15:29:57;;;;;;;;;;;4.00;84.90;;;;;;4859973;29;19932;-76
2022/01/23 15:32:25;;;;;;;;;;;4.00;84.80;;;;;;4861066;29;19935;-76
2022/01/23 15:34:52;;;;;;;;;;;4.00;84.90;;;;;;4865054;29;19935;-75
2022/01/23 15:37:20;;;;;;;;;;;4.00;84.80;;;;;;4878379;29;20294;-76
2022/01/23 15:39:48;;;;;;;;;;;4.00;84.80;;;;;;4878534;29;19928;-75
2022/01/23 15:42:16;;;;;;;;;;;3.90;84.50;;;;;;4877661;29;19928;-76
2022/01/23 15:44:44;;;;;;;;;;;3.90;84.40;;;;;;4862975;29;19928;-77
2022/01/23 15:47:11;;;;;;;;;;;3.90;84.40;;;;;;4858341;29;19935;-77
2022/01/23 15:49:39;;;;;;;;;;;3.90;84.40;;;;;;4858558;29;20394;-76
2022/01/23 15:52:06;;;;;;;;;;;3.90;84.50;;;;;;4879495;29;19927;-76
2022/01/23 15:54:34;;;;;;;;;;;3.90;84.60;;;;;;4881946;29;19931;-76
2022/01/23 15:57:02;;;;;;;;;;;3.80;84.60;;;;;;4881465;29;19935;-76
2022/01/23 15:59:35;;;;;;;;;;;3.80;84.30;;;;;;4880370;29;19927;-76
2022/01/23 16:02:04;;;;;;;;;;;3.80;84.20;;;;;;4880503;29;19936;-75
2022/01/23 16:04:35;;;;;;;;;;;3.80;84.30;;;;;;4879222;29;19935;-76
2022/01/23 16:07:09;;;;;;;;;;;3.80;84.20;;;;;;4862173;29;19936;-77
2022/01/23 16:09:36;;;;;;;;;;;3.80;84.30;;;;;;4866110;29;19951;-76
2022/01/23 16:12:04;;;;;;;;;;;3.80;84.40;;;;;;4864410;29;19939;-77
2022/01/23 16:14:52;;;;;;;;;;;3.70;84.00;;;;;;4862590;29;19928;-76
2022/01/23 16:17:19;;;;;;;;;;;3.70;83.40;;;;;;4862931;29;19928;-76
2022/01/23 16:19:47;;;;;;;;;;;3.70;83.60;;;;;;4861986;29;19935;-76
2022/01/23 16:22:14;;;;;;;;;;;3.70;83.70;;;;;;4853848;29;19938;-76
2022/01/23 16:24:41;;;;;;;;;;;3.70;83.90;;;;;;4881301;29;19935;-77
2022/01/23 16:27:09;;;;;;;;;;;3.70;84.00;;;;;;4879861;29;19942;-77
2022/01/23 16:29:36;;;;;;;;;;;3.70;84.00;;;;;;4880895;29;19928;-76
2022/01/23 16:32:04;;;;;;;;;;;3.60;84.10;;;;;;4862726;29;20031;-75
2022/01/23 16:34:32;;;;;;;;;;;3.60;84.10;;;;;;4862681;29;19935;-76
2022/01/23 16:36:59;;;;;;;;;;;3.60;84.10;;;;;;4862503;29;19929;-77
2022/01/23 16:39:27;;;;;;;;;;;3.60;84.20;;;;;;4845929;29;19928;-76
2022/01/23 16:41:55;;;;;;;;;;;3.60;84.30;;;;;;4857164;29;19939;-76
2022/01/23 16:44:23;;;;;;;;;;;3.60;84.40;;;;;;4879733;29;20347;-76
2022/01/23 16:46:51;;;;;;;;;;;3.60;84.40;;;;;;4880829;29;20000;-77
2022/01/23 16:49:39;;;;;;;;;;;3.60;84.40;;;;;;4881155;29;19928;-76
2022/01/23 16:52:09;;;;;;;;;;;3.60;84.10;;;;;;4879706;29;19928;-77
2022/01/23 16:54:37;;;;;;;;;;;3.60;83.80;;;;;;4864151;29;19935;-75
2022/01/23 16:57:20;;;;;;;;;;;3.60;83.90;;;;;;4869820;29;19927;-78
2022/01/23 16:59:47;;;;;;;;;;;3.50;83.90;;;;;;4862016;29;19935;-77
2022/01/23 17:02:15;;;;;;;;;;;3.60;83.90;;;;;;4860940;29;19951;-75
2022/01/23 17:04:43;;;;;;;;;;;3.60;84.00;;;;;;4861367;29;19939;-75
2022/01/23 17:07:10;;;;;;;;;;;3.60;84.00;;;;;;4860755;29;20295;-75
2022/01/23 17:09:38;;;;;;;;;;;3.60;84.10;;;;;;4860667;29;20390;-76
2022/01/23 17:12:06;;;;;;;;;;;3.60;84.10;;;;;;4861661;29;19928;-77
2022/01/23 17:14:34;;;;;;;;;;;3.50;84.20;;;;;;4861888;29;19928;-76
2022/01/23 17:17:02;;;;;;;;;;;3.60;84.30;;;;;;4874686;29;19932;-76
2022/01/23 17:19:31;;;;;;;;;;;3.60;84.40;;;;;;4880318;29;19928;-76
2022/01/23 17:21:58;;;;;;;;;;;3.60;84.40;;;;;;4870540;29;19928;-78
2022/01/23 17:24:29;;;;;;;;;;;3.60;84.50;;;;;;4869253;29;20322;-79
2022/01/23 17:26:59;;;;;;;;;;;3.60;84.60;;;;;;4866544;29;19928;-78
2022/01/23 17:29:26;;;;;;;;;;;3.60;84.60;;;;;;4867668;29;19928;-77
2022/01/23 17:31:54;;;;;;;;;;;3.50;84.60;;;;;;4880074;29;19934;-78
2022/01/23 17:34:21;;;;;;;;;;;3.60;84.70;;;;;;4867026;29;19951;-76
2022/01/23 17:36:49;;;;;;;;;;;3.60;84.70;;;;;;4866190;29;19935;-78
2022/01/23 17:39:17;;;;;;;;;;;3.60;84.80;;;;;;4871720;29;20317;-76
2022/01/23 17:41:44;;;;;;;;;;;3.50;84.80;;;;;;4848038;29;19928;-77
2022/01/23 17:44:11;;;;;;;;;;;3.50;84.80;;;;;;4858807;29;19932;-77
2022/01/23 17:46:41;;;;;;;;;;;3.50;84.90;;;;;;4865884;29;19928;-77
2022/01/23 17:49:10;;;;;;;;;;;3.50;85.10;;;;;;4870318;29;20374;-76
2022/01/23 17:51:38;;;;;;;;;;;3.50;85.10;;;;;;4872145;29;21559;-76
2022/01/23 17:54:05;;;;;;;;;;;3.40;85.10;;;;;;4876734;29;19932;-77
2022/01/23 17:56:35;;;;;;;;;;;3.50;85.10;;;;;;4874413;29;20404;-76
2022/01/23 17:59:04;;;;;;;;;;;3.40;85.00;;;;;;4870396;29;19928;-77
2022/01/23 18:01:31;;;;;;;;;;;3.40;85.00;;;;;;4868167;29;19935;-77
2022/01/23 18:03:59;;;;;;;;;;;3.40;85.10;;;;;;4866176;29;19928;-76
2022/01/23 18:06:29;;;;;;;;;;;3.40;85.20;;;;;;4861482;29;20294;-77
2022/01/23 18:08:58;;;;;;;;;;;3.40;85.20;;;;;;4869328;29;19928;-77
2022/01/23 18:11:25;;;;;;;;;;;3.40;85.20;;;;;;4871724;29;19928;-77
2022/01/23 18:13:57;;;;;;;;;;;3.40;85.20;;;;;;4881575;29;19936;-76
2022/01/23 18:16:27;;;;;;;;;;;3.40;85.30;;;;;;4868974;29;19931;-75
2022/01/23 18:18:56;;;;;;;;;;;3.40;85.40;;;;;;4865933;29;20336;-75